Time;durP1;ratioP1;P1;durP2;ratioP2;P2;SDS_P1;SDS_P2;PMS_P1;PMS_P2;Temp;Humidity;BMP_temperature;BMP_pressure;BME280_temperature;BME280_humidity;BME280_pressure;Samples;Min_cycle;Max_cycle;Signal;HPM_P1;HPM_P2
2024/01/14 00:00:34;;;;;;;18.48;6.40;;;-0.40;99.90;;;;;;10054063;28;20184;-68
2024/01/14 00:05:25;;;;;;;16.63;7.63;;;-0.40;99.90;;;;;;10055441;28;20021;-66
2024/01/14 00:10:15;;;;;;;17.88;6.00;;;-0.40;99.90;;;;;;10056186;28;20070;-67
2024/01/14 00:15:06;;;;;;;19.88;6.28;;;-0.30;99.90;;;;;;10056385;28;20545;-70
2024/01/14 00:19:57;;;;;;;15.35;6.70;;;-0.50;99.90;;;;;;10055920;28;20443;-65
2024/01/14 00:24:49;;;;;;;17.98;6.82;;;-0.50;99.90;;;;;;10055825;28;20026;-71
2024/01/14 00:29:39;;;;;;;16.35;6.10;;;-0.50;99.90;;;;;;10055070;28;20095;-67
2024/01/14 00:34:31;;;;;;;16.25;7.07;;;-0.60;99.90;;;;;;10055429;28;20564;-70
2024/01/14 00:39:22;;;;;;;21.02;7.07;;;-0.60;99.90;;;;;;10055527;28;20120;-74
2024/01/14 00:44:13;;;;;;;26.58;8.18;;;-0.50;99.90;;;;;;10055195;28;20096;-71
2024/01/14 00:49:04;;;;;;;20.00;7.97;;;-0.50;99.90;;;;;;10055504;28;20037;-66
2024/01/14 00:53:55;;;;;;;20.45;7.90;;;-0.50;99.90;;;;;;10062813;28;20144;-74
2024/01/14 00:58:45;;;;;;;27.98;9.18;;;-0.60;99.90;;;;;;10061248;28;20616;-69
2024/01/14 01:03:36;;;;;;;28.02;7.55;;;-0.60;99.90;;;;;;10063483;28;20022;-68
2024/01/14 01:08:27;;;;;;;24.08;8.88;;;-0.60;99.90;;;;;;10062448;28;20030;-65
2024/01/14 01:13:18;;;;;;;27.90;8.20;;;-0.70;99.90;;;;;;10062403;28;20033;-65
2024/01/14 01:18:09;;;;;;;31.70;8.20;;;-0.60;99.90;;;;;;10061474;28;20042;-65
2024/01/14 01:23:00;;;;;;;23.55;8.27;;;-0.70;99.90;;;;;;10061938;28;20107;-65
2024/01/14 01:27:50;;;;;;;28.83;10.43;;;-0.70;99.90;;;;;;10060928;28;20029;-68
2024/01/14 01:32:41;;;;;;;28.80;9.85;;;-0.70;99.90;;;;;;10061760;28;20033;-66
2024/01/14 01:37:32;;;;;;;28.70;8.77;;;-0.80;99.90;;;;;;10061057;28;20052;-64
2024/01/14 01:42:22;;;;;;;29.45;9.43;;;-0.80;99.90;;;;;;10059998;28;20021;-65
2024/01/14 01:47:16;;;;;;;21.10;7.57;;;-0.70;99.90;;;;;;10060925;28;20043;-65
2024/01/14 01:52:08;;;;;;;27.58;7.88;;;-0.80;99.90;;;;;;10061109;28;20026;-65
2024/01/14 01:56:59;;;;;;;19.02;8.38;;;-0.80;99.90;;;;;;10065475;28;20499;-66
2024/01/14 02:01:50;;;;;;;17.75;7.43;;;-0.70;99.90;;;;;;10060347;28;20412;-73
2024/01/14 02:06:41;;;;;;;26.05;8.32;;;-0.80;99.90;;;;;;10059738;28;20028;-65
2024/01/14 02:11:35;;;;;;;25.15;8.82;;;-0.90;99.90;;;;;;10060471;28;20036;-71
2024/01/14 02:16:25;;;;;;;20.27;7.22;;;-1.10;99.90;;;;;;10059455;28;20655;-73
2024/01/14 02:21:20;;;;;;;22.73;8.20;;;-1.10;99.90;;;;;;10058613;28;20100;-76
2024/01/14 02:26:10;;;;;;;20.17;8.68;;;-1.00;99.90;;;;;;10055990;28;20029;-71
2024/01/14 02:31:02;;;;;;;25.65;8.38;;;-1.10;99.90;;;;;;10057103;28;20158;-71
2024/01/14 02:35:52;;;;;;;18.10;7.38;;;-1.00;99.90;;;;;;10056907;28;20029;-73
2024/01/14 02:40:43;;;;;;;18.83;6.93;;;-1.00;99.90;;;;;;10056893;28;20037;-72
2024/01/14 02:45:33;;;;;;;25.25;8.13;;;-0.90;99.90;;;;;;10053735;28;20518;-69
2024/01/14 02:50:24;;;;;;;24.45;7.25;;;-0.90;99.90;;;;;;10055661;28;20120;-73
2024/01/14 02:55:15;;;;;;;27.85;8.40;;;-1.00;99.90;;;;;;10060866;28;20034;-72
2024/01/14 03:00:07;;;;;;;27.77;8.35;;;-1.00;99.90;;;;;;10056521;28;20053;-73
2024/01/14 03:04:58;;;;;;;22.35;7.28;;;-1.00;99.90;;;;;;10056727;28;20040;-74
2024/01/14 03:09:48;;;;;;;24.20;7.15;;;-1.20;99.90;;;;;;10056203;28;20117;-74
2024/01/14 03:14:39;;;;;;;19.70;7.90;;;-1.20;99.90;;;;;;10055641;28;20045;-73
2024/01/14 03:19:30;;;;;;;22.65;8.48;;;-1.20;99.90;;;;;;10015656;28;1162248;-73
2024/01/14 03:24:20;;;;;;;19.45;9.07;;;-1.10;99.90;;;;;;10057187;28;20113;-73
2024/01/14 03:29:11;;;;;;;24.52;8.63;;;-1.10;99.90;;;;;;10056847;28;20029;-71
2024/01/14 03:34:01;;;;;;;28.35;7.95;;;-1.20;99.90;;;;;;10057363;28;20179;-64
2024/01/14 03:38:52;;;;;;;30.02;8.05;;;-1.10;99.90;;;;;;10056966;28;20033;-64
2024/01/14 03:43:43;;;;;;;22.35;8.73;;;-1.10;99.90;;;;;;10055258;28;20029;-64
2024/01/14 03:48:33;;;;;;;24.23;9.30;;;-1.10;99.90;;;;;;10057008;28;20531;-68
2024/01/14 03:53:24;;;;;;;25.95;9.25;;;-1.10;99.90;;;;;;10066024;28;20544;-64
2024/01/14 03:58:15;;;;;;;29.98;8.65;;;-1.20;99.90;;;;;;10059823;28;20038;-64
2024/01/14 04:03:06;;;;;;;21.67;8.52;;;-1.20;99.90;;;;;;10055323;28;20109;-64
2024/01/14 04:07:57;;;;;;;19.88;9.23;;;-1.20;99.90;;;;;;10052992;28;20112;-64
2024/01/14 04:12:48;;;;;;;24.83;7.35;;;-1.40;99.90;;;;;;10055497;28;20056;-63
2024/01/14 04:17:39;;;;;;;32.40;9.80;;;-1.30;99.90;;;;;;10054430;28;20037;-65
2024/01/14 04:22:29;;;;;;;23.23;8.52;;;-1.20;99.90;;;;;;10055527;28;20531;-69
2024/01/14 04:27:20;;;;;;;24.17;8.73;;;-1.10;99.90;;;;;;10060682;28;20511;-64
2024/01/14 04:32:11;;;;;;;27.17;8.20;;;-1.10;99.90;;;;;;10063977;28;20041;-64
2024/01/14 04:37:01;;;;;;;19.33;7.70;;;-1.10;99.90;;;;;;10064270;28;20033;-64
2024/01/14 04:41:52;;;;;;;27.98;8.30;;;-1.20;99.90;;;;;;10064389;28;20041;-63
2024/01/14 04:46:43;;;;;;;30.48;7.47;;;-1.20;99.90;;;;;;10062450;28;20660;-69
2024/01/14 04:51:34;;;;;;;22.35;7.40;;;-1.20;99.90;;;;;;10063966;28;20033;-67
2024/01/14 04:56:25;;;;;;;22.50;8.27;;;-1.00;99.90;;;;;;10077835;28;20152;-68
2024/01/14 05:01:16;;;;;;;19.85;7.05;;;-1.10;99.90;;;;;;10063027;28;20900;-65
2024/01/14 05:06:06;;;;;;;26.23;7.60;;;-1.20;99.90;;;;;;10062405;28;20507;-66
2024/01/14 05:10:58;;;;;;;20.45;8.02;;;-1.10;99.90;;;;;;10063342;28;20075;-65
2024/01/14 05:15:49;;;;;;;17.00;7.20;;;-1.10;99.90;;;;;;10071977;28;20074;-68
2024/01/14 05:20:40;;;;;;;23.08;7.88;;;-1.10;99.90;;;;;;10062298;28;20054;-64
2024/01/14 05:25:31;;;;;;;28.75;8.57;;;-1.10;99.90;;;;;;10061586;28;20026;-69
2024/01/14 05:30:21;;;;;;;29.13;7.53;;;-1.10;99.90;;;;;;10057825;28;20168;-65
2024/01/14 05:35:12;;;;;;;19.48;8.73;;;-1.10;99.90;;;;;;10060610;28;20344;-72
2024/01/14 05:40:05;;;;;;;21.27;8.45;;;-1.10;99.90;;;;;;10063597;28;20048;-65
2024/01/14 05:44:55;;;;;;;25.85;8.32;;;-1.10;99.90;;;;;;10059208;28;20029;-68
2024/01/14 05:49:46;;;;;;;21.40;7.03;;;-1.20;99.90;;;;;;10060759;28;20120;-67
2024/01/14 05:54:37;;;;;;;22.75;7.40;;;-1.10;99.90;;;;;;10074102;28;20099;-71
2024/01/14 05:59:27;;;;;;;25.15;8.48;;;-1.10;99.90;;;;;;10060174;28;20043;-74
2024/01/14 06:04:18;;;;;;;17.35;7.43;;;-1.10;99.90;;;;;;10060755;28;20026;-65
2024/01/14 06:09:09;;;;;;;31.60;8.73;;;-1.10;99.90;;;;;;10060414;28;20072;-64
2024/01/14 06:14:00;;;;;;;28.95;7.88;;;-1.00;99.90;;;;;;10060184;28;20140;-64
2024/01/14 06:18:51;;;;;;;25.98;7.80;;;-1.00;99.90;;;;;;10059858;28;20120;-69
2024/01/14 06:23:41;;;;;;;24.80;7.60;;;-0.90;99.90;;;;;;10058286;28;20057;-62
2024/01/14 06:28:32;;;;;;;16.08;7.60;;;-0.90;99.90;;;;;;10058729;28;20040;-65
2024/01/14 06:33:23;;;;;;;21.73;7.40;;;-0.90;99.90;;;;;;10058959;28;20034;-66
2024/01/14 06:38:13;;;;;;;19.27;8.00;;;-1.00;99.90;;;;;;10058687;28;20049;-63
2024/01/14 06:43:04;;;;;;;25.45;7.70;;;-1.00;99.90;;;;;;10058867;28;20040;-67
2024/01/14 06:47:54;;;;;;;20.70;8.70;;;-0.90;99.90;;;;;;10058357;28;20029;-64
2024/01/14 06:52:45;;;;;;;20.10;7.53;;;-0.90;99.90;;;;;;10061547;28;20028;-67
2024/01/14 06:57:36;;;;;;;23.45;7.72;;;-0.90;99.90;;;;;;10062790;28;20102;-65
2024/01/14 07:02:27;;;;;;;19.35;8.32;;;-0.90;99.90;;;;;;10057914;28;20365;-64
2024/01/14 07:07:17;;;;;;;30.25;8.02;;;-0.80;99.90;;;;;;10057200;28;20061;-64
2024/01/14 07:12:08;;;;;;;28.55;9.00;;;-0.90;99.90;;;;;;10057671;28;20101;-63
2024/01/14 07:16:59;;;;;;;23.40;7.88;;;-0.80;99.90;;;;;;10057203;28;20030;-64
2024/01/14 07:21:51;;;;;;;26.02;8.35;;;-0.90;99.90;;;;;;10056654;28;20150;-65
2024/01/14 07:26:41;;;;;;;25.38;8.02;;;-0.90;99.90;;;;;;10056489;28;20453;-63
2024/01/14 07:31:32;;;;;;;18.60;7.20;;;-0.90;99.90;;;;;;10056814;28;20029;-63
2024/01/14 07:36:23;;;;;;;19.67;7.72;;;-0.90;99.90;;;;;;10056748;28;20400;-63
2024/01/14 07:41:14;;;;;;;23.27;8.32;;;-0.90;99.90;;;;;;10056342;28;20088;-65
2024/01/14 07:46:06;;;;;;;23.00;7.72;;;-0.90;99.90;;;;;;10064955;28;20033;-65
2024/01/14 07:50:57;;;;;;;23.42;8.35;;;-0.90;99.90;;;;;;10063633;28;20026;-64
2024/01/14 07:55:47;;;;;;;19.98;7.60;;;-0.80;99.90;;;;;;10061359;28;20033;-65
2024/01/14 08:00:38;;;;;;;26.00;8.70;;;-0.90;99.90;;;;;;10056703;28;20048;-65
2024/01/14 08:05:29;;;;;;;29.15;8.05;;;-0.80;99.90;;;;;;10056889;28;20129;-64
2024/01/14 08:10:19;;;;;;;19.73;7.57;;;-0.90;99.90;;;;;;10057974;28;20114;-66
2024/01/14 08:15:10;;;;;;;26.42;8.50;;;-1.00;99.90;;;;;;10056008;28;20036;-65
2024/01/14 08:20:01;;;;;;;23.73;7.93;;;-1.00;99.90;;;;;;10055524;28;20049;-63
2024/01/14 08:24:51;;;;;;;27.73;7.65;;;-1.00;99.90;;;;;;10055553;28;20087;-64
2024/01/14 08:29:42;;;;;;;24.95;7.97;;;-1.00;99.90;;;;;;10057009;28;20043;-66
2024/01/14 08:34:32;;;;;;;24.95;7.80;;;-1.00;99.90;;;;;;10055428;28;20025;-63
2024/01/14 08:39:23;;;;;;;26.27;8.77;;;-1.00;99.90;;;;;;10055323;28;20048;-64
2024/01/14 08:44:14;;;;;;;26.60;7.85;;;-1.00;99.90;;;;;;10050616;28;20082;-64
2024/01/14 08:49:04;;;;;;;21.17;7.13;;;-1.00;99.90;;;;;;10073280;28;20022;-63
2024/01/14 08:54:00;;;;;;;23.85;8.15;;;-1.00;99.90;;;;;;10069201;28;20419;-66
2024/01/14 08:58:51;;;;;;;22.30;8.80;;;-1.00;99.90;;;;;;10071329;28;20616;-67
2024/01/14 09:03:42;;;;;;;20.50;7.07;;;-1.10;99.90;;;;;;10073973;28;20032;-66
2024/01/14 09:08:32;;;;;;;25.05;6.82;;;-1.10;99.90;;;;;;10073889;28;20437;-66
2024/01/14 09:13:23;;;;;;;26.33;6.72;;;-1.20;99.90;;;;;;10065055;28;20399;-65
2024/01/14 09:18:13;;;;;;;25.10;6.72;;;-1.20;99.90;;;;;;10061269;28;20042;-66
2024/01/14 09:23:04;;;;;;;23.35;8.07;;;-1.10;99.90;;;;;;10060661;28;20072;-69
2024/01/14 09:27:55;;;;;;;20.88;6.65;;;-1.20;99.90;;;;;;10061786;28;20037;-64
2024/01/14 09:32:45;;;;;;;21.35;8.38;;;-1.20;99.90;;;;;;10061922;28;20391;-64
2024/01/14 09:37:36;;;;;;;19.15;6.95;;;-1.20;99.90;;;;;;10061255;28;20041;-65
2024/01/14 09:42:32;;;;;;;24.92;7.97;;;-1.10;99.90;;;;;;10061306;28;20060;-65
2024/01/14 09:47:23;;;;;;;25.45;7.95;;;-1.10;99.90;;;;;;10058720;28;20022;-65
2024/01/14 09:52:14;;;;;;;18.38;7.30;;;-1.20;99.90;;;;;;10075005;28;20033;-64
2024/01/14 09:57:11;;;;;;;24.27;7.40;;;-1.10;99.90;;;;;;10070060;28;20021;-63
2024/01/14 10:02:03;;;;;;;30.60;9.18;;;-1.10;99.90;;;;;;10060468;28;20124;-63
2024/01/14 10:06:54;;;;;;;22.50;8.20;;;-1.00;99.90;;;;;;10060752;28;20108;-63
2024/01/14 10:11:46;;;;;;;22.13;6.95;;;-1.10;99.90;;;;;;10060323;28;20108;-64
2024/01/14 10:16:38;;;;;;;30.17;9.63;;;-1.10;99.90;;;;;;10059735;28;20518;-65
2024/01/14 10:21:31;;;;;;;27.73;8.25;;;-1.10;99.90;;;;;;10057147;28;20045;-66
2024/01/14 10:26:23;;;;;;;29.48;7.88;;;-1.10;99.90;;;;;;10075293;28;20091;-69
2024/01/14 10:31:13;;;;;;;24.95;7.97;;;-1.10;99.90;;;;;;10080702;28;20429;-65
2024/01/14 10:36:08;;;;;;;25.38;8.10;;;-1.10;99.90;;;;;;10075669;28;20024;-67
2024/01/14 10:40:59;;;;;;;23.13;7.72;;;-1.10;99.90;;;;;;10072562;28;20033;-63
2024/01/14 10:45:51;;;;;;;24.10;7.75;;;-1.10;99.90;;;;;;10079017;28;20106;-64
2024/01/14 10:50:47;;;;;;;21.55;6.00;;;-1.10;99.90;;;;;;10055669;28;20413;-62
2024/01/14 10:55:43;;;;;;;;;;;-1.00;99.90;;;;;;10065123;28;20025;-67
2024/01/14 11:00:36;;;;;;;18.17;5.82;;;-1.00;99.90;;;;;;10055003;28;20351;-62
2024/01/14 11:05:27;;;;;;;18.90;8.13;;;-0.90;99.90;;;;;;10057712;28;20041;-62
2024/01/14 11:10:17;;;;;;;21.48;8.52;;;-1.00;99.90;;;;;;10053735;28;20029;-62
2024/01/14 11:15:24;;;;;;;17.60;7.07;;;-0.90;99.90;;;;;;10057274;28;20112;-63
2024/01/14 11:20:18;;;;;;;24.10;8.50;;;-0.90;99.90;;;;;;10058643;28;20626;-62
2024/01/14 11:25:16;;;;;;;23.63;7.95;;;-0.90;99.90;;;;;;10057372;28;20029;-64
2024/01/14 11:30:11;;;;;;;25.48;9.10;;;-0.90;99.90;;;;;;10057691;28;20029;-64
2024/01/14 11:35:02;;;;;;;18.77;7.65;;;-0.80;99.90;;;;;;10057458;28;20124;-64
2024/01/14 11:39:53;;;;;;;21.13;6.43;;;-0.80;99.90;;;;;;10057113;28;20041;-67
2024/01/14 11:44:43;;;;;;;21.63;6.90;;;-0.80;99.90;;;;;;10056706;28;20065;-62
2024/01/14 11:49:35;;;;;;;15.85;6.80;;;-0.80;99.90;;;;;;10055922;28;20025;-62
2024/01/14 11:54:27;;;;;;;21.95;7.38;;;-0.90;99.90;;;;;;10064956;28;20128;-63
2024/01/14 11:59:18;;;;;;;22.27;7.03;;;-0.70;99.90;;;;;;10056217;28;20033;-64
2024/01/14 12:04:09;;;;;;;20.52;8.18;;;-0.70;99.90;;;;;;10056975;28;20836;-66
2024/01/14 12:09:03;;;;;;;18.02;7.00;;;-0.70;99.90;;;;;;10057376;28;20065;-66
2024/01/14 12:13:54;;;;;;;28.52;8.35;;;-0.80;99.90;;;;;;10058721;28;20029;-65
2024/01/14 12:18:45;;;;;;;23.38;7.68;;;-0.80;99.90;;;;;;10055717;28;20803;-64
2024/01/14 12:23:37;;;;;;;25.52;7.53;;;-0.80;99.90;;;;;;10055008;28;20041;-66
2024/01/14 12:28:27;;;;;;;23.30;7.80;;;-0.70;99.90;;;;;;10055286;28;20099;-67
2024/01/14 12:33:22;;;;;;;23.55;7.65;;;-0.60;99.90;;;;;;10054499;28;20079;-67
2024/01/14 12:38:13;;;;;;;16.33;6.93;;;-0.60;99.90;;;;;;10054878;28;20096;-67
2024/01/14 12:43:07;;;;;;;25.15;7.47;;;-0.50;99.90;;;;;;10055441;28;20414;-69
2024/01/14 12:48:00;;;;;;;17.00;6.72;;;-0.50;99.90;;;;;;10054479;28;20041;-72
2024/01/14 12:52:56;;;;;;;22.35;7.25;;;-0.60;99.90;;;;;;10059416;28;20012;-73
2024/01/14 12:57:47;;;;;;;22.38;8.55;;;-0.60;99.90;;;;;;10054244;28;20021;-67
2024/01/14 13:02:38;;;;;;;14.75;7.28;;;-0.50;99.90;;;;;;10063314;28;20029;-71
2024/01/14 13:07:28;;;;;;;17.23;6.95;;;-0.60;99.90;;;;;;10062589;28;20118;-62
2024/01/14 13:12:19;;;;;;;26.55;7.65;;;-0.60;99.90;;;;;;10062644;28;20037;-65
2024/01/14 13:17:10;;;;;;;24.70;8.43;;;-0.60;99.90;;;;;;10062708;28;20573;-66
2024/01/14 13:22:00;;;;;;;16.80;7.47;;;-0.50;99.90;;;;;;10062354;28;20130;-62
2024/01/14 13:26:51;;;;;;;22.20;7.50;;;-0.40;99.90;;;;;;10060684;28;20633;-67
2024/01/14 13:31:42;;;;;;;26.25;8.25;;;-0.30;99.90;;;;;;10062438;28;20090;-71
2024/01/14 13:36:33;;;;;;;22.33;7.32;;;-0.30;99.90;;;;;;10064993;28;20034;-71
2024/01/14 13:41:23;;;;;;;21.77;8.20;;;-0.40;99.90;;;;;;10061907;28;20048;-70
2024/01/14 13:46:14;;;;;;;29.05;8.13;;;-0.50;99.90;;;;;;10061254;28;20026;-66
2024/01/14 13:51:05;;;;;;;22.80;8.27;;;-0.50;99.90;;;;;;10059872;28;20029;-68
2024/01/14 13:55:55;;;;;;;23.85;8.23;;;-0.40;99.90;;;;;;10072861;28;20026;-67
2024/01/14 14:00:46;;;;;;;23.90;8.65;;;-0.50;99.90;;;;;;10060792;28;20676;-64
2024/01/14 14:05:37;;;;;;;20.23;7.78;;;-0.60;99.90;;;;;;10061652;28;20025;-64
2024/01/14 14:10:27;;;;;;;27.17;9.23;;;-0.70;99.90;;;;;;10061530;28;20079;-64
2024/01/14 14:15:18;;;;;;;23.33;7.75;;;-0.70;99.90;;;;;;10060789;28;20415;-63
2024/01/14 14:20:10;;;;;;;18.85;7.70;;;-0.60;99.90;;;;;;10059747;28;20575;-68
2024/01/14 14:25:01;;;;;;;18.05;8.10;;;-0.50;99.90;;;;;;10058543;28;20060;-66
2024/01/14 14:29:51;;;;;;;20.65;7.75;;;-0.50;99.90;;;;;;10059961;28;20036;-62
2024/01/14 14:34:43;;;;;;;20.30;7.47;;;-0.50;99.90;;;;;;10059624;28;20026;-62
2024/01/14 14:39:33;;;;;;;21.83;8.38;;;-0.50;99.90;;;;;;10059582;28;20061;-64
2024/01/14 14:44:24;;;;;;;23.55;8.38;;;-0.50;99.90;;;;;;10059034;28;20084;-64
2024/01/14 14:49:15;;;;;;;19.92;7.35;;;-0.50;99.90;;;;;;10058523;28;20754;-65
2024/01/14 14:54:11;;;;;;;21.38;7.50;;;-0.50;99.90;;;;;;10063770;28;20025;-64
2024/01/14 14:59:02;;;;;;;24.77;7.18;;;-0.50;99.90;;;;;;10059112;28;20045;-62
2024/01/14 15:03:53;;;;;;;22.98;7.88;;;-0.50;99.90;;;;;;10058908;28;20033;-66
2024/01/14 15:08:43;;;;;;;21.20;8.13;;;-0.40;99.90;;;;;;10056501;28;20025;-63
2024/01/14 15:13:34;;;;;;;21.23;8.82;;;-0.50;99.90;;;;;;10055554;28;20025;-63
2024/01/14 15:18:25;;;;;;;23.38;8.20;;;-0.50;99.90;;;;;;10051810;28;20041;-63
2024/01/14 15:23:16;;;;;;;24.48;7.82;;;-0.50;99.90;;;;;;10047020;28;20057;-63
2024/01/14 15:28:06;;;;;;;23.23;7.93;;;-0.50;99.90;;;;;;10054728;28;20038;-62
2024/01/14 15:32:57;;;;;;;21.90;7.63;;;-0.50;99.90;;;;;;10057250;28;20183;-62
2024/01/14 15:37:47;;;;;;;16.15;7.50;;;-0.70;99.90;;;;;;10057707;28;20133;-63
2024/01/14 15:42:38;;;;;;;22.30;7.30;;;-0.70;99.90;;;;;;10057117;28;20116;-62
2024/01/14 15:47:30;;;;;;;18.48;6.97;;;-0.70;99.90;;;;;;10057744;28;20030;-63
2024/01/14 15:52:20;;;;;;;21.55;7.07;;;-0.90;99.90;;;;;;10056836;28;20075;-63
2024/01/14 15:57:11;;;;;;;21.23;7.05;;;-0.80;99.90;;;;;;10057615;28;20029;-64
2024/01/14 16:02:02;;;;;;;23.33;7.45;;;-0.80;99.90;;;;;;10057404;28;20033;-63
2024/01/14 16:06:52;;;;;;;22.92;7.22;;;-0.80;99.90;;;;;;10056943;28;20029;-70
2024/01/14 16:11:43;;;;;;;20.15;7.38;;;-0.70;99.90;;;;;;10056634;28;20443;-69
2024/01/14 16:16:33;;;;;;;18.67;7.88;;;-0.80;99.90;;;;;;10056196;28;20037;-63
2024/01/14 16:21:25;;;;;;;22.40;8.45;;;-0.80;99.90;;;;;;10059357;28;20041;-67
2024/01/14 16:26:16;;;;;;;28.02;9.18;;;-0.80;99.90;;;;;;10064074;28;20403;-67
2024/01/14 16:31:07;;;;;;;24.60;7.50;;;-0.90;99.90;;;;;;10060471;28;20044;-67
2024/01/14 16:35:57;;;;;;;23.25;8.05;;;-0.80;99.90;;;;;;10064064;28;20049;-67
2024/01/14 16:40:53;;;;;;;17.27;7.50;;;-0.80;99.90;;;;;;10064325;28;20029;-72
2024/01/14 16:45:43;;;;;;;18.35;5.18;;;-0.80;99.90;;;;;;10063797;28;20069;-69
2024/01/14 16:50:34;;;;;;;16.45;7.30;;;-0.80;99.90;;;;;;10061859;28;20041;-69
2024/01/14 16:55:25;;;;;;;24.80;8.77;;;-0.90;99.90;;;;;;10060269;28;20407;-71
2024/01/14 17:00:16;;;;;;;21.00;7.95;;;-0.90;99.90;;;;;;10067371;28;20037;-69
2024/01/14 17:05:06;;;;;;;27.15;7.97;;;-0.80;99.90;;;;;;10062698;28;20486;-70
2024/01/14 17:09:57;;;;;;;19.27;7.65;;;-0.90;99.90;;;;;;10062764;28;20094;-69
2024/01/14 17:14:49;;;;;;;30.08;9.38;;;-0.90;99.90;;;;;;10062496;28;20044;-68
2024/01/14 17:19:40;;;;;;;23.42;7.68;;;-0.70;99.90;;;;;;10062276;28;20049;-69
2024/01/14 17:24:32;;;;;;;20.38;7.78;;;-0.80;99.90;;;;;;10063022;28;20025;-66
2024/01/14 17:29:23;;;;;;;18.27;7.78;;;-0.80;99.90;;;;;;10062551;28;20032;-64
2024/01/14 17:34:14;;;;;;;19.35;7.30;;;-0.70;99.90;;;;;;10060898;28;20436;-63
2024/01/14 17:39:05;;;;;;;20.35;8.35;;;-0.60;99.90;;;;;;10062159;28;20033;-63
2024/01/14 17:43:56;;;;;;;25.77;8.27;;;-0.60;99.90;;;;;;10061529;28;20116;-64
2024/01/14 17:48:47;;;;;;;20.88;8.18;;;-0.60;99.90;;;;;;10061271;28;20065;-62
2024/01/14 17:53:38;;;;;;;21.13;7.82;;;-0.60;99.90;;;;;;10061780;28;20395;-68
2024/01/14 17:58:29;;;;;;;19.90;8.00;;;-0.60;99.90;;;;;;10061105;28;20124;-63
2024/01/14 18:03:20;;;;;;;25.33;9.10;;;-0.70;99.90;;;;;;10060541;28;20105;-71
2024/01/14 18:08:11;;;;;;;25.85;8.52;;;-0.60;99.90;;;;;;10059484;28;20640;-71
2024/01/14 18:13:02;;;;;;;27.70;8.48;;;-0.60;99.90;;;;;;10059001;28;20464;-69
2024/01/14 18:17:52;;;;;;;25.35;7.32;;;-0.60;99.90;;;;;;10058612;28;20102;-70
2024/01/14 18:22:43;;;;;;;21.83;9.15;;;-0.60;99.90;;;;;;10059653;28;20057;-65
2024/01/14 18:27:34;;;;;;;23.52;8.32;;;-0.60;99.90;;;;;;10058921;28;20464;-70
2024/01/14 18:32:24;;;;;;;25.45;7.30;;;-0.60;99.90;;;;;;10059910;28;20595;-71
2024/01/14 18:37:15;;;;;;;17.60;7.70;;;-0.60;99.90;;;;;;10055355;28;20060;-63
2024/01/14 18:42:06;;;;;;;22.58;7.97;;;-0.60;99.90;;;;;;10076709;28;20117;-62
2024/01/14 18:46:57;;;;;;;21.55;7.72;;;-0.50;99.90;;;;;;10060853;28;20032;-63
2024/01/14 18:51:47;;;;;;;23.83;7.57;;;-0.60;99.90;;;;;;10058591;28;20037;-64
2024/01/14 18:56:41;;;;;;;21.13;8.20;;;-0.60;99.90;;;;;;10057903;28;20033;-64
2024/01/14 19:01:32;;;;;;;20.58;7.53;;;-0.60;99.90;;;;;;10061235;28;20105;-66
2024/01/14 19:06:22;;;;;;;18.90;7.75;;;-0.60;99.90;;;;;;10057568;28;20104;-63
2024/01/14 19:11:13;;;;;;;18.80;7.70;;;-0.60;99.90;;;;;;10058051;28;20033;-63
2024/01/14 19:16:07;;;;;;;19.27;8.38;;;-0.60;99.90;;;;;;10057457;28;20029;-63
2024/01/14 19:20:58;;;;;;;18.05;6.57;;;-0.60;99.90;;;;;;10057472;28;20062;-63
2024/01/14 19:25:49;;;;;;;23.58;7.22;;;-0.60;99.90;;;;;;10061614;28;20715;-63
2024/01/14 19:30:40;;;;;;;18.67;6.20;;;-0.60;99.90;;;;;;10057382;28;20036;-63
2024/01/14 19:35:32;;;;;;;20.83;7.65;;;-0.60;99.90;;;;;;10047261;28;20021;-63
2024/01/14 19:40:25;;;;;;;21.20;8.20;;;-0.60;99.90;;;;;;10055036;28;20029;-65
2024/01/14 19:45:15;;;;;;;29.95;8.15;;;-0.60;99.90;;;;;;10045475;28;20034;-71
2024/01/14 19:50:06;;;;;;;23.13;8.85;;;-0.60;99.90;;;;;;10055457;28;20544;-69
2024/01/14 19:54:57;;;;;;;24.30;9.52;;;-0.60;99.90;;;;;;10054051;28;20080;-69
2024/01/14 19:59:48;;;;;;;31.27;10.70;;;-0.60;99.90;;;;;;10056174;28;20458;-70
2024/01/14 20:04:38;;;;;;;27.88;11.77;;;-0.70;99.90;;;;;;10056451;28;20108;-69
2024/01/14 20:09:29;;;;;;;23.48;9.98;;;-0.70;99.90;;;;;;10057201;28;20041;-68
2024/01/14 20:14:20;;;;;;;24.95;9.55;;;-0.70;99.90;;;;;;10055538;28;20029;-64
2024/01/14 20:19:10;;;;;;;22.00;9.38;;;-0.70;99.90;;;;;;10054480;28;20546;-65
2024/01/14 20:24:01;;;;;;;30.08;9.80;;;-0.80;99.90;;;;;;10055581;28;20765;-67
2024/01/14 20:28:51;;;;;;;22.73;8.20;;;-0.80;99.90;;;;;;10056127;28;20045;-68
2024/01/14 20:33:42;;;;;;;30.27;9.90;;;-0.70;99.90;;;;;;10055747;28;20033;-70
2024/01/14 20:38:33;;;;;;;29.80;9.30;;;-0.70;99.90;;;;;;10055528;28;20132;-69
2024/01/14 20:43:23;;;;;;;19.77;7.70;;;-0.70;99.90;;;;;;10055521;28;20477;-66
2024/01/14 20:48:14;;;;;;;22.45;9.02;;;-0.60;99.90;;;;;;10056095;28;20040;-71
2024/01/14 20:53:05;;;;;;;24.20;7.63;;;-0.60;99.90;;;;;;10054736;28;20029;-69
2024/01/14 20:57:55;;;;;;;31.23;8.82;;;-0.60;99.90;;;;;;10055091;28;20163;-67
2024/01/14 21:02:46;;;;;;;20.98;8.40;;;-0.60;99.90;;;;;;10054663;28;20042;-66
2024/01/14 21:07:37;;;;;;;14.95;7.30;;;-0.60;99.90;;;;;;10056673;28;20511;-67
2024/01/14 21:12:27;;;;;;;20.73;8.35;;;-0.60;99.90;;;;;;10069071;28;20026;-67
2024/01/14 21:17:19;;;;;;;22.65;9.35;;;-0.60;99.90;;;;;;10061315;28;20059;-73
2024/01/14 21:22:09;;;;;;;28.88;8.82;;;-0.50;99.90;;;;;;10062177;28;20077;-76
2024/01/14 21:27:00;;;;;;;27.35;8.73;;;-0.50;99.90;;;;;;10060135;28;20049;-66
2024/01/14 21:31:51;;;;;;;21.92;9.70;;;-0.50;99.90;;;;;;10061828;28;20552;-70
2024/01/14 21:36:42;;;;;;;27.23;9.27;;;-0.50;99.90;;;;;;10060634;28;20037;-66
2024/01/14 21:41:32;;;;;;;22.15;8.77;;;-0.60;99.90;;;;;;10059224;28;20038;-65
2024/01/14 21:46:23;;;;;;;25.25;8.25;;;-0.60;99.90;;;;;;10060689;28;20029;-67
2024/01/14 21:51:13;;;;;;;22.27;8.13;;;-0.50;99.90;;;;;;10060934;28;20418;-67
2024/01/14 21:56:04;;;;;;;23.58;7.88;;;-0.50;99.90;;;;;;10059875;28;20032;-64
2024/01/14 22:00:55;;;;;;;22.33;8.57;;;-0.50;99.90;;;;;;10060457;28;20041;-64
2024/01/14 22:05:46;;;;;;;21.92;8.30;;;-0.50;99.90;;;;;;10060110;28;20026;-65
2024/01/14 22:10:37;;;;;;;31.33;8.98;;;-0.50;99.90;;;;;;10060112;28;20064;-64
2024/01/14 22:15:28;;;;;;;27.60;8.98;;;-0.50;99.90;;;;;;10059724;28;20518;-63
2024/01/14 22:20:19;;;;;;;21.35;7.53;;;-0.50;99.90;;;;;;10059863;28;20045;-63
2024/01/14 22:25:10;;;;;;;19.48;7.25;;;-0.50;99.90;;;;;;10059177;28;20056;-66
2024/01/14 22:30:03;;;;;;;24.90;8.07;;;-0.50;99.90;;;;;;10055826;28;20553;-64
2024/01/14 22:34:53;;;;;;;23.85;7.57;;;-0.50;99.90;;;;;;10053825;28;20117;-69
2024/01/14 22:39:44;;;;;;;20.75;8.23;;;-0.50;99.90;;;;;;10058523;28;20132;-61
2024/01/14 22:44:35;;;;;;;22.63;8.68;;;-0.50;99.90;;;;;;10058140;28;20318;-64
2024/01/14 22:49:25;;;;;;;18.30;8.20;;;-0.50;99.90;;;;;;10061787;28;20096;-62
2024/01/14 22:54:16;;;;;;;27.92;7.97;;;-0.50;99.90;;;;;;10059451;28;20033;-63
2024/01/14 22:59:08;;;;;;;19.33;8.10;;;-0.50;99.90;;;;;;10067657;28;20417;-63
2024/01/14 23:03:58;;;;;;;20.67;8.00;;;-0.50;99.90;;;;;;10055665;28;20025;-64
2024/01/14 23:08:49;;;;;;;25.20;9.00;;;-0.50;99.90;;;;;;10058536;28;20042;-64
2024/01/14 23:13:39;;;;;;;19.90;7.97;;;-0.40;99.90;;;;;;10057963;28;20689;-65
2024/01/14 23:18:30;;;;;;;22.77;8.00;;;-0.50;99.90;;;;;;10057279;28;20037;-67
2024/01/14 23:23:21;;;;;;;20.70;6.75;;;-0.40;99.90;;;;;;10057600;28;20046;-63
2024/01/14 23:28:11;;;;;;;19.63;7.32;;;-0.40;99.90;;;;;;10058362;28;20647;-62
2024/01/14 23:33:02;;;;;;;20.63;8.00;;;-0.40;99.90;;;;;;10058232;28;20082;-67
2024/01/14 23:37:53;;;;;;;18.73;6.32;;;-0.40;99.90;;;;;;10064163;28;20098;-63
2024/01/14 23:42:44;;;;;;;19.42;8.02;;;-0.40;99.90;;;;;;10057190;28;20747;-67
2024/01/14 23:47:35;;;;;;;25.42;7.70;;;-0.30;99.90;;;;;;10055361;28;20026;-65
2024/01/14 23:52:25;;;;;;;21.25;7.22;;;-0.30;99.90;;;;;;10056100;28;20041;-63
2024/01/14 23:57:16;;;;;;;20.92;7.63;;;-0.30;99.90;;;;;;10055286;28;20013;-63
